Time;durP1;ratioP1;P1;durP2;ratioP2;P2;SDS_P1;SDS_P2;PMS_P1;PMS_P2;Temp;Humidity;BMP_temperature;BMP_pressure;BME280_temperature;BME280_humidity;BME280_pressure;Samples;Min_cycle;Max_cycle;Signal;HPM_P1;HPM_P2
2022/05/12 00:01:58;;;;;;;1.35;0.80;;;10.00;99.90;;;;;;5067314;28;20043;-58
2022/05/12 00:04:24;;;;;;;2.65;1.02;;;9.90;99.90;;;;;;5066722;28;20083;-58
2022/05/12 00:06:50;;;;;;;1.17;0.80;;;9.80;99.90;;;;;;5069427;28;20032;-58
2022/05/12 00:09:16;;;;;;;1.13;0.70;;;9.90;99.90;;;;;;5070290;28;20093;-59
2022/05/12 00:11:42;;;;;;;1.83;0.77;;;9.90;99.90;;;;;;5069977;28;20024;-58
2022/05/12 00:14:07;;;;;;;2.17;0.90;;;9.90;99.90;;;;;;5070112;28;20549;-58
2022/05/12 00:16:33;;;;;;;0.90;0.55;;;9.90;99.90;;;;;;5070023;28;20370;-59
2022/05/12 00:18:58;;;;;;;2.13;0.68;;;10.00;99.90;;;;;;5070023;28;20023;-58
2022/05/12 00:21:24;;;;;;;2.10;0.80;;;10.00;99.90;;;;;;5069906;28;20041;-58
2022/05/12 00:23:59;;;;;;;3.03;1.33;;;9.90;99.90;;;;;;5068409;28;20029;-58
2022/05/12 00:26:27;;;;;;;1.63;0.70;;;9.90;99.90;;;;;;5066501;28;20028;-59
2022/05/12 00:28:53;;;;;;;2.97;0.90;;;9.90;99.90;;;;;;5067728;28;20028;-59
2022/05/12 00:31:19;;;;;;;1.50;0.73;;;10.00;99.90;;;;;;5070015;28;20024;-58
2022/05/12 00:33:45;;;;;;;2.67;0.90;;;9.90;99.90;;;;;;5051911;28;20166;-58
2022/05/12 00:36:11;;;;;;;1.45;0.80;;;9.90;99.90;;;;;;5069608;28;20495;-58
2022/05/12 00:38:37;;;;;;;2.13;1.27;;;9.90;99.90;;;;;;5069987;28;20025;-58
2022/05/12 00:41:03;;;;;;;3.20;0.85;;;10.00;99.90;;;;;;5068644;28;20027;-58
2022/05/12 00:43:33;;;;;;;4.20;0.88;;;10.00;99.90;;;;;;5069654;28;20021;-58
2022/05/12 00:45:59;;;;;;;0.82;0.82;;;9.90;99.90;;;;;;5067951;28;20076;-58
2022/05/12 00:48:24;;;;;;;1.40;1.00;;;9.80;99.90;;;;;;5066966;28;20177;-58
2022/05/12 00:50:50;;;;;;;1.33;1.20;;;9.80;99.90;;;;;;5066567;28;20260;-59
2022/05/12 00:53:16;;;;;;;1.30;0.82;;;9.70;99.90;;;;;;5066736;28;20566;-58
2022/05/12 00:55:44;;;;;;;3.00;0.60;;;9.60;99.90;;;;;;5066183;28;20517;-59
2022/05/12 00:58:13;;;;;;;1.00;0.50;;;9.60;99.90;;;;;;5067374;28;20021;-59
2022/05/12 01:00:40;;;;;;;3.80;0.70;;;9.50;99.90;;;;;;5069514;28;20119;-59
2022/05/12 01:03:15;;;;;;;1.27;0.70;;;9.50;99.90;;;;;;5066883;28;20032;-58
2022/05/12 01:05:41;;;;;;;1.70;0.88;;;9.50;99.90;;;;;;5066309;28;20566;-59
2022/05/12 01:08:12;;;;;;;1.92;0.65;;;9.50;99.90;;;;;;5068681;28;20025;-58
2022/05/12 01:10:39;;;;;;;1.42;0.95;;;9.60;99.90;;;;;;5069312;28;20036;-59
2022/05/12 01:13:05;;;;;;;2.35;1.08;;;9.70;99.90;;;;;;5069418;28;20021;-58
2022/05/12 01:15:31;;;;;;;0.95;0.63;;;9.70;99.90;;;;;;5069620;28;20086;-58
2022/05/12 01:18:10;;;;;;;4.38;1.20;;;9.70;99.90;;;;;;5069672;28;20027;-58
2022/05/12 01:20:38;;;;;;;3.33;0.95;;;9.60;99.90;;;;;;5069273;28;20473;-58
2022/05/12 01:23:28;;;;;;;1.08;0.55;;;9.50;99.90;;;;;;5069342;28;20083;-59
2022/05/12 01:26:00;;;;;;;0.90;0.73;;;9.40;99.90;;;;;;5069357;28;20541;-60
2022/05/12 01:28:27;;;;;;;2.65;0.93;;;9.30;99.90;;;;;;5069748;28;20029;-60
2022/05/12 01:30:53;;;;;;;2.28;0.93;;;9.30;99.90;;;;;;5069510;28;20028;-60
2022/05/12 01:33:20;;;;;;;3.78;0.90;;;9.20;99.90;;;;;;5051287;28;20032;-59
2022/05/12 01:35:46;;;;;;;1.55;1.00;;;9.20;99.90;;;;;;5069302;28;20056;-59
2022/05/12 01:38:13;;;;;;;2.78;0.75;;;9.20;99.90;;;;;;5069186;28;20068;-59
2022/05/12 01:40:40;;;;;;;1.52;0.82;;;9.10;99.90;;;;;;5068994;28;20028;-60
2022/05/12 01:43:06;;;;;;;2.90;0.80;;;9.10;99.90;;;;;;5069392;28;20029;-59
2022/05/12 01:45:32;;;;;;;2.45;0.90;;;9.10;99.90;;;;;;5065371;28;20137;-60
2022/05/12 01:47:57;;;;;;;1.52;1.10;;;9.10;99.90;;;;;;5055148;28;20049;-60
2022/05/12 01:50:23;;;;;;;1.98;1.40;;;9.10;99.90;;;;;;5046717;28;20033;-59
2022/05/12 01:52:49;;;;;;;6.20;0.90;;;9.00;99.90;;;;;;5048125;28;20037;-58
2022/05/12 01:55:19;;;;;;;2.50;0.50;;;9.00;99.90;;;;;;5050057;28;20021;-58
2022/05/12 01:57:46;;;;;;;2.63;1.10;;;9.00;99.90;;;;;;5056680;28;20048;-58
2022/05/12 02:00:15;;;;;;;4.80;0.95;;;9.00;99.90;;;;;;5069654;28;20058;-58
2022/05/12 02:02:41;;;;;;;1.35;0.60;;;9.00;99.90;;;;;;5069438;28;20443;-58
2022/05/12 02:05:10;;;;;;;4.65;0.55;;;8.90;99.90;;;;;;5071892;28;20033;-58
2022/05/12 02:07:40;;;;;;;2.25;0.82;;;8.90;99.90;;;;;;5072594;28;20033;-58
2022/05/12 02:10:07;;;;;;;3.45;0.77;;;8.90;99.90;;;;;;5071622;28;20067;-59
2022/05/12 02:12:33;;;;;;;2.38;0.70;;;8.90;99.90;;;;;;5068961;28;20035;-59
2022/05/12 02:14:59;;;;;;;3.20;0.90;;;8.90;99.90;;;;;;5069412;28;20032;-58
2022/05/12 02:17:24;;;;;;;2.33;0.80;;;8.90;99.90;;;;;;5069097;28;20027;-58
2022/05/12 02:19:50;;;;;;;2.60;0.73;;;8.90;99.90;;;;;;5069752;28;20082;-58
2022/05/12 02:22:18;;;;;;;3.78;1.00;;;8.90;99.90;;;;;;5072144;28;20025;-59
2022/05/12 02:24:45;;;;;;;1.23;0.70;;;8.90;99.90;;;;;;5072025;28;20595;-59
2022/05/12 02:27:11;;;;;;;4.05;1.42;;;8.80;99.90;;;;;;5072025;28;20032;-59
2022/05/12 02:29:37;;;;;;;1.65;0.80;;;8.80;99.90;;;;;;5072142;28;20029;-59
2022/05/12 02:32:03;;;;;;;3.83;1.00;;;8.70;99.90;;;;;;5071943;28;20075;-59
2022/05/12 02:34:29;;;;;;;3.15;0.95;;;8.70;99.90;;;;;;5072239;28;20086;-58
2022/05/12 02:37:00;;;;;;;3.40;0.82;;;8.60;99.90;;;;;;5072149;28;20016;-59
2022/05/12 02:39:28;;;;;;;2.38;0.82;;;8.60;99.90;;;;;;5071908;28;20495;-58
2022/05/12 02:41:54;;;;;;;6.47;1.77;;;8.50;99.90;;;;;;5071661;28;20033;-58
2022/05/12 02:44:19;;;;;;;1.80;0.77;;;8.50;99.90;;;;;;5071750;28;20044;-59
2022/05/12 02:46:45;;;;;;;6.32;1.10;;;8.50;99.90;;;;;;5071777;28;20055;-59
2022/05/12 02:49:11;;;;;;;0.80;0.73;;;8.50;99.90;;;;;;5071795;28;20036;-59
2022/05/12 02:51:37;;;;;;;2.92;0.82;;;8.60;99.90;;;;;;5071650;28;20548;-58
2022/05/12 02:54:03;;;;;;;5.60;0.90;;;8.50;99.90;;;;;;5071802;28;20031;-58
2022/05/12 02:56:28;;;;;;;2.13;0.70;;;8.50;99.90;;;;;;5071771;28;20040;-58
2022/05/12 02:58:54;;;;;;;3.03;0.82;;;8.50;99.90;;;;;;5071572;28;20119;-60
2022/05/12 03:01:20;;;;;;;3.30;0.63;;;8.50;99.90;;;;;;5071761;28;20074;-59
2022/05/12 03:03:45;;;;;;;2.70;1.08;;;8.50;99.90;;;;;;5070643;28;20389;-58
2022/05/12 03:06:11;;;;;;;1.52;0.77;;;8.50;99.90;;;;;;5071431;28;20040;-59
2022/05/12 03:08:37;;;;;;;2.95;0.93;;;8.50;99.90;;;;;;5071282;28;20079;-59
2022/05/12 03:11:04;;;;;;;1.13;0.80;;;8.50;99.90;;;;;;5071115;28;20024;-59
2022/05/12 03:13:31;;;;;;;1.88;1.05;;;8.40;99.90;;;;;;5071476;28;20063;-59
2022/05/12 03:15:59;;;;;;;2.70;1.02;;;8.40;99.90;;;;;;5071322;28;20033;-59
2022/05/12 03:18:25;;;;;;;4.18;0.85;;;8.30;99.90;;;;;;5071198;28;20074;-58
2022/05/12 03:20:51;;;;;;;4.15;0.93;;;8.30;99.90;;;;;;5071248;28;20074;-58
2022/05/12 03:23:18;;;;;;;4.68;1.23;;;8.30;99.90;;;;;;5070910;28;20028;-58
2022/05/12 03:25:44;;;;;;;3.35;1.10;;;8.20;99.90;;;;;;5070820;28;20024;-58
2022/05/12 03:28:11;;;;;;;1.52;0.95;;;8.20;99.90;;;;;;5071175;28;20036;-59
2022/05/12 03:30:36;;;;;;;3.65;1.02;;;8.10;99.90;;;;;;5071041;28;20440;-58
2022/05/12 03:33:02;;;;;;;3.95;1.17;;;8.10;99.90;;;;;;5071274;28;20028;-59
2022/05/12 03:35:28;;;;;;;3.33;1.05;;;8.10;99.90;;;;;;5071065;28;20028;-59
2022/05/12 03:37:54;;;;;;;3.42;0.82;;;8.20;99.90;;;;;;5070660;28;20028;-59
2022/05/12 03:40:20;;;;;;;1.52;1.02;;;8.30;99.90;;;;;;5070861;28;20036;-59
2022/05/12 03:42:47;;;;;;;4.10;1.20;;;8.40;99.90;;;;;;5067136;28;20064;-59
2022/05/12 03:45:13;;;;;;;1.45;1.13;;;8.50;99.90;;;;;;5070655;28;20025;-59
2022/05/12 03:47:40;;;;;;;4.93;0.82;;;8.40;99.90;;;;;;5070467;28;20048;-59
2022/05/12 03:50:08;;;;;;;1.50;0.75;;;8.30;99.90;;;;;;5070595;28;20029;-60
2022/05/12 03:52:34;;;;;;;3.22;0.60;;;8.30;99.90;;;;;;5070609;28;20025;-58
2022/05/12 03:55:00;;;;;;;3.15;1.00;;;8.20;99.90;;;;;;5070553;28;20426;-58
2022/05/12 03:57:28;;;;;;;2.15;0.63;;;8.10;99.90;;;;;;5067033;28;20031;-58
2022/05/12 03:59:54;;;;;;;1.55;0.77;;;8.10;99.90;;;;;;5070571;28;20040;-58
2022/05/12 04:02:21;;;;;;;4.28;0.88;;;8.00;99.90;;;;;;5070410;28;20067;-58
2022/05/12 04:04:48;;;;;;;2.72;0.90;;;8.10;99.90;;;;;;5052212;28;20404;-58
2022/05/12 04:07:17;;;;;;;2.08;0.90;;;8.10;99.90;;;;;;5070107;28;20017;-59
2022/05/12 04:09:43;;;;;;;2.67;0.85;;;8.20;99.90;;;;;;5070177;28;20025;-59
2022/05/12 04:12:09;;;;;;;1.40;0.82;;;8.10;99.90;;;;;;5070256;28;20112;-58
2022/05/12 04:14:40;;;;;;;1.75;0.90;;;8.00;99.90;;;;;;5070395;28;20056;-58
2022/05/12 04:17:07;;;;;;;1.10;0.82;;;8.00;99.90;;;;;;5067438;28;20169;-58
2022/05/12 04:19:33;;;;;;;2.28;1.13;;;7.90;99.90;;;;;;5066955;28;20031;-58
2022/05/12 04:21:59;;;;;;;0.80;0.70;;;7.90;99.90;;;;;;5069015;28;20107;-58
2022/05/12 04:24:24;;;;;;;4.93;1.45;;;7.90;99.90;;;;;;5069950;28;20069;-58
2022/05/12 04:26:50;;;;;;;0.98;0.88;;;7.90;99.90;;;;;;5070172;28;20100;-58
2022/05/12 04:29:16;;;;;;;1.73;0.82;;;7.90;99.90;;;;;;5070266;28;20081;-58
2022/05/12 04:31:42;;;;;;;1.58;0.60;;;8.00;99.90;;;;;;5067888;28;20481;-59
2022/05/12 04:36:53;;;;;;;3.40;1.00;;;7.90;99.90;;;;;;5067471;28;20389;-59
2022/05/12 04:39:19;;;;;;;3.75;0.70;;;7.90;99.90;;;;;;5069900;28;20108;-59
2022/05/12 04:41:45;;;;;;;0.65;0.65;;;7.90;99.90;;;;;;5051383;28;20477;-58
2022/05/12 04:44:12;;;;;;;2.10;0.82;;;7.90;99.90;;;;;;5070080;28;20028;-59
2022/05/12 04:46:40;;;;;;;3.33;1.27;;;8.00;99.90;;;;;;5069426;28;20440;-58
2022/05/12 04:49:07;;;;;;;1.17;0.90;;;8.00;99.90;;;;;;5069736;28;20588;-58
2022/05/12 04:51:33;;;;;;;3.30;1.13;;;8.10;99.90;;;;;;5070263;28;20055;-58
2022/05/12 04:54:00;;;;;;;3.97;1.02;;;8.20;99.90;;;;;;5069597;28;20020;-59
2022/05/12 04:56:26;;;;;;;2.63;0.95;;;8.20;99.90;;;;;;5069517;28;20060;-59
2022/05/12 04:58:52;;;;;;;2.63;1.02;;;8.30;99.90;;;;;;5069639;28;20056;-59
2022/05/12 05:01:17;;;;;;;2.83;1.02;;;8.40;99.90;;;;;;5068248;28;20059;-59
2022/05/12 05:03:43;;;;;;;4.85;1.00;;;8.40;99.90;;;;;;5066478;28;20020;-58
2022/05/12 05:06:09;;;;;;;4.97;1.38;;;8.40;99.90;;;;;;5067125;28;20389;-59
2022/05/12 05:08:36;;;;;;;4.38;1.00;;;8.50;99.90;;;;;;5068996;28;20074;-58
2022/05/12 05:11:04;;;;;;;2.70;0.73;;;8.50;99.90;;;;;;5069198;28;20021;-59
2022/05/12 05:13:30;;;;;;;5.00;1.17;;;8.50;99.90;;;;;;5065994;28;20052;-59
2022/05/12 05:15:56;;;;;;;4.75;1.27;;;8.60;99.90;;;;;;5066301;28;20036;-59
2022/05/12 05:18:22;;;;;;;1.85;1.10;;;8.70;99.90;;;;;;5069678;28;20035;-59
2022/05/12 05:20:48;;;;;;;1.02;0.68;;;8.80;99.90;;;;;;5069658;28;20016;-59
2022/05/12 05:23:21;;;;;;;2.97;1.10;;;8.80;99.90;;;;;;5069309;28;20028;-59
2022/05/12 05:25:48;;;;;;;5.72;1.27;;;8.90;99.90;;;;;;5069342;28;20086;-59
2022/05/12 05:28:14;;;;;;;3.20;0.90;;;9.00;99.90;;;;;;5072465;28;20016;-59
2022/05/12 05:30:41;;;;;;;0.88;0.65;;;9.10;99.90;;;;;;5072407;28;20052;-59
2022/05/12 05:33:07;;;;;;;8.90;1.20;;;9.10;99.90;;;;;;5070500;28;20040;-59
2022/05/12 05:35:34;;;;;;;1.42;0.95;;;9.10;99.90;;;;;;5070037;28;20059;-59
2022/05/12 05:38:00;;;;;;;4.78;1.55;;;9.20;99.90;;;;;;5070130;28;20028;-59
2022/05/12 05:40:26;;;;;;;2.88;0.95;;;9.30;99.90;;;;;;5070018;28;20035;-59
2022/05/12 05:42:53;;;;;;;1.63;1.10;;;9.40;99.90;;;;;;5051856;28;20401;-59
2022/05/12 05:45:19;;;;;;;2.53;0.75;;;9.50;99.90;;;;;;5069591;28;20047;-59
2022/05/12 05:47:48;;;;;;;6.70;1.23;;;9.70;99.90;;;;;;5069488;28;20079;-59
2022/05/12 05:50:18;;;;;;;2.65;1.05;;;9.80;99.90;;;;;;5069894;28;20112;-59
2022/05/12 05:55:27;;;;;;;3.70;1.20;;;10.00;99.90;;;;;;5066347;28;20086;-59
2022/05/12 05:57:53;;;;;;;4.28;1.33;;;10.10;99.90;;;;;;5069485;28;20028;-58
2022/05/12 06:00:19;;;;;;;3.25;1.17;;;10.30;99.90;;;;;;5069575;28;20028;-58
2022/05/12 06:02:46;;;;;;;3.08;2.88;;;10.30;99.90;;;;;;5070053;28;20072;-58
2022/05/12 06:05:11;;;;;;;2.70;0.95;;;10.40;99.90;;;;;;5069482;28;20041;-58
2022/05/12 06:07:40;;;;;;;6.80;1.15;;;10.60;99.90;;;;;;5069303;28;20040;-59
2022/05/12 06:10:06;;;;;;;2.10;1.33;;;10.70;99.90;;;;;;5070608;28;20381;-58
2022/05/12 06:12:33;;;;;;;1.05;0.90;;;10.80;99.90;;;;;;5072071;28;20470;-58
2022/05/12 06:14:59;;;;;;;1.70;0.90;;;10.90;99.90;;;;;;5072373;28;20035;-58
2022/05/12 06:17:26;;;;;;;2.53;1.00;;;11.10;99.90;;;;;;5072091;28;20024;-58
2022/05/12 06:19:52;;;;;;;1.55;1.10;;;11.30;99.90;;;;;;5054449;28;20173;-58
2022/05/12 06:22:21;;;;;;;2.55;0.93;;;11.40;99.90;;;;;;5054066;28;20494;-58
2022/05/12 06:24:49;;;;;;;2.10;1.08;;;11.40;99.90;;;;;;5068909;28;20032;-58
2022/05/12 06:27:16;;;;;;;3.72;1.23;;;11.60;99.90;;;;;;5069235;28;20035;-58
2022/05/12 06:29:44;;;;;;;3.67;1.45;;;11.80;99.90;;;;;;5071724;28;20036;-58
2022/05/12 06:32:10;;;;;;;7.00;1.33;;;11.90;99.90;;;;;;5072223;28;20029;-58
2022/05/12 06:34:36;;;;;;;1.38;1.00;;;12.10;99.90;;;;;;5071993;28;20058;-58
2022/05/12 06:37:02;;;;;;;2.17;1.13;;;12.20;99.90;;;;;;5071813;28;20162;-58
2022/05/12 06:39:28;;;;;;;3.15;0.65;;;12.40;99.90;;;;;;5070550;28;20032;-58
2022/05/12 06:41:54;;;;;;;3.55;0.95;;;12.50;99.90;;;;;;5071898;28;20108;-58
2022/05/12 06:44:19;;;;;;;4.25;1.30;;;12.50;99.90;;;;;;5071594;28;20413;-58
2022/05/12 06:46:45;;;;;;;2.22;1.05;;;12.70;99.90;;;;;;5071613;28;20124;-58
2022/05/12 06:49:11;;;;;;;4.75;1.23;;;12.90;99.90;;;;;;5071542;28;20107;-58
2022/05/12 06:51:37;;;;;;;3.90;0.77;;;13.20;99.90;;;;;;5071401;28;20032;-59
2022/05/12 06:54:03;;;;;;;2.17;1.02;;;13.40;99.90;;;;;;5070635;28;20462;-59
2022/05/12 06:56:29;;;;;;;3.33;1.30;;;13.50;99.90;;;;;;5070714;28;20028;-59
2022/05/12 06:58:54;;;;;;;4.13;0.93;;;13.60;99.90;;;;;;5071480;28;20496;-59
2022/05/12 07:01:20;;;;;;;5.63;1.20;;;13.80;99.90;;;;;;5069866;28;20064;-59
2022/05/12 07:03:46;;;;;;;5.53;1.40;;;14.00;99.90;;;;;;5067817;28;20111;-59
2022/05/12 07:06:12;;;;;;;1.80;0.77;;;14.00;99.90;;;;;;5068230;28;20063;-59
2022/05/12 07:08:42;;;;;;;4.88;1.30;;;14.40;99.90;;;;;;5071296;28;20039;-60
2022/05/12 07:11:11;;;;;;;4.13;1.02;;;14.50;99.90;;;;;;5071214;28;20044;-59
2022/05/12 07:13:37;;;;;;;1.75;1.05;;;14.60;99.90;;;;;;5071318;28;20116;-59
2022/05/12 07:16:04;;;;;;;5.00;1.27;;;14.90;99.90;;;;;;5071195;28;20436;-59
2022/05/12 07:18:30;;;;;;;6.80;1.30;;;15.20;99.90;;;;;;5071226;28;20107;-59
2022/05/12 07:26:36;;;;;;;2.47;1.17;;;15.60;99.90;;;;;;5070762;28;20039;-60
2022/05/12 07:29:10;;;;;;;3.00;1.10;;;16.10;99.90;;;;;;5071053;28;20028;-59
2022/05/12 07:31:36;;;;;;;4.10;1.00;;;16.60;99.90;;;;;;5070842;28;20111;-59
2022/05/12 07:34:02;;;;;;;3.05;1.08;;;16.80;99.90;;;;;;5070733;28;20471;-59
2022/05/12 07:36:32;;;;;;;2.50;0.80;;;17.10;99.90;;;;;;5070589;28;20020;-59
2022/05/12 07:38:58;;;;;;;3.90;1.17;;;17.30;99.90;;;;;;5071086;28;20029;-59
2022/05/12 07:41:24;;;;;;;3.17;0.98;;;17.80;99.90;;;;;;5070152;28;20115;-60
2022/05/12 07:43:51;;;;;;;3.45;1.33;;;17.90;99.50;;;;;;5067074;28;20366;-60
2022/05/12 07:46:23;;;;;;;4.00;1.25;;;18.30;99.20;;;;;;5070229;28;20513;-59
2022/05/12 07:48:50;;;;;;;3.75;1.20;;;18.60;98.80;;;;;;5070492;28;20095;-60
2022/05/12 07:51:17;;;;;;;2.83;1.50;;;19.10;98.20;;;;;;5069966;28;20047;-60
2022/05/12 07:53:47;;;;;;;3.80;1.10;;;19.00;97.80;;;;;;5066993;28;20024;-60
2022/05/12 07:56:13;;;;;;;2.87;1.00;;;18.80;97.40;;;;;;5070107;28;20393;-60
2022/05/12 07:58:39;;;;;;;4.20;1.10;;;19.30;98.50;;;;;;5070822;28;20268;-60
2022/05/12 08:01:05;;;;;;;2.13;1.05;;;19.90;96.30;;;;;;5069909;28;20031;-60
2022/05/12 08:03:31;;;;;;;2.75;1.27;;;19.70;95.70;;;;;;5070198;28;20028;-60
2022/05/12 08:05:59;;;;;;;5.15;1.77;;;20.00;96.50;;;;;;5070202;28;20090;-60
2022/05/12 08:08:28;;;;;;;4.93;1.02;;;20.10;94.70;;;;;;5069987;28;20464;-60
2022/05/12 08:10:54;;;;;;;6.75;1.73;;;20.30;95.00;;;;;;5070126;28;20070;-61
2022/05/12 08:13:21;;;;;;;3.35;1.10;;;21.10;94.00;;;;;;5070244;28;20035;-61
2022/05/12 08:15:49;;;;;;;2.22;2.03;;;21.60;92.90;;;;;;5070431;28;20052;-61
2022/05/12 08:18:21;;;;;;;2.72;1.27;;;21.50;93.30;;;;;;5070115;28;20032;-60
2022/05/12 08:20:47;;;;;;;1.23;1.10;;;21.50;90.80;;;;;;5069973;28;20033;-61
2022/05/12 08:23:13;;;;;;;3.45;1.05;;;21.50;91.20;;;;;;5068892;28;20116;-60
2022/05/12 08:25:40;;;;;;;1.73;0.93;;;21.60;90.60;;;;;;5066477;28;20123;-61
2022/05/12 08:28:06;;;;;;;2.13;0.95;;;22.30;90.80;;;;;;5067069;28;20048;-61
2022/05/12 08:30:32;;;;;;;3.33;1.13;;;22.60;87.90;;;;;;5069869;28;20154;-61
2022/05/12 08:32:59;;;;;;;4.00;1.15;;;22.90;86.80;;;;;;5068315;28;20025;-61
2022/05/12 08:35:26;;;;;;;0.82;0.60;;;23.80;84.50;;;;;;5066679;28;20081;-61
2022/05/12 08:37:53;;;;;;;4.00;0.93;;;24.30;79.40;;;;;;5067579;28;20498;-61
2022/05/12 08:40:31;;;;;;;1.98;0.82;;;24.80;73.40;;;;;;5069483;28;20469;-62
2022/05/12 08:43:05;;;;;;;3.42;0.90;;;24.60;73.40;;;;;;5049494;28;20552;-61
2022/05/12 08:45:31;;;;;;;2.63;1.00;;;24.10;70.40;;;;;;5049823;28;20037;-61
2022/05/12 08:47:58;;;;;;;1.60;0.68;;;24.50;75.70;;;;;;5049430;28;20174;-61
2022/05/12 08:50:29;;;;;;;2.78;1.00;;;25.30;66.20;;;;;;5056070;28;20111;-61
2022/05/12 08:53:01;;;;;;;1.35;0.80;;;25.30;66.90;;;;;;5051727;28;20028;-61
2022/05/12 08:55:48;;;;;;;3.22;1.17;;;25.30;65.00;;;;;;5050672;28;20036;-62
2022/05/12 08:58:26;;;;;;;3.00;0.82;;;24.90;65.50;;;;;;5049596;28;20116;-61
2022/05/12 09:01:00;;;;;;;1.38;0.70;;;24.90;67.10;;;;;;5031765;28;20025;-61
2022/05/12 09:03:35;;;;;;;2.75;0.63;;;25.70;68.10;;;;;;5061447;28;20028;-61
2022/05/12 09:06:05;;;;;;;3.80;1.27;;;25.70;64.70;;;;;;5060656;28;20385;-62
2022/05/12 09:08:42;;;;;;;;;;;25.20;62.20;;;;;;5047906;28;20025;-61
2022/05/12 09:11:28;;;;;;;2.55;0.70;;;25.10;65.50;;;;;;5051187;28;19920;-61
2022/05/12 09:13:54;;;;;;;2.53;1.08;;;25.20;64.60;;;;;;5066127;28;20082;-61
2022/05/12 09:16:26;;;;;;;1.65;0.50;;;26.70;65.10;;;;;;5067583;28;20416;-61
2022/05/12 09:18:53;;;;;;;2.92;0.70;;;25.80;57.10;;;;;;5066152;28;20048;-61
2022/05/12 09:21:25;;;;;;;2.10;0.93;;;26.60;59.60;;;;;;5066129;28;20357;-61
2022/05/12 09:23:51;;;;;;;3.22;0.82;;;25.50;60.50;;;;;;5066120;28;20534;-59
2022/05/12 09:26:37;;;;;;;1.80;0.70;;;24.60;60.60;;;;;;5061716;28;20033;-61
2022/05/12 09:29:23;;;;;;;4.07;0.95;;;25.50;60.90;;;;;;5047917;28;20025;-61
2022/05/12 09:32:03;;;;;;;2.47;1.23;;;26.50;57.80;;;;;;5049237;28;20029;-61
2022/05/12 09:34:33;;;;;;;2.15;1.08;;;26.20;55.50;;;;;;5048081;28;20021;-61
2022/05/12 09:37:21;;;;;;;1.48;0.85;;;28.00;52.20;;;;;;5046133;28;20029;-61
2022/05/12 09:40:12;;;;;;;2.15;0.70;;;28.10;49.30;;;;;;5047351;28;20025;-61
2022/05/12 09:42:41;;;;;;;1.85;0.68;;;28.50;48.80;;;;;;5066419;28;20684;-61
2022/05/12 09:45:07;;;;;;;3.85;1.00;;;30.50;44.80;;;;;;5067448;28;20024;-61
2022/05/12 09:47:34;;;;;;;1.70;0.95;;;30.20;40.40;;;;;;5049633;28;20051;-61
2022/05/12 09:50:16;;;;;;;2.45;0.77;;;31.10;39.90;;;;;;5049366;28;20041;-62
2022/05/12 09:52:57;;;;;;;2.55;0.73;;;30.70;38.10;;;;;;5067466;28;20032;-61
2022/05/12 09:55:38;;;;;;;3.22;1.08;;;29.10;38.30;;;;;;5068955;28;20472;-60
2022/05/12 09:58:26;;;;;;;4.65;0.70;;;31.00;37.20;;;;;;5068764;28;20035;-60
2022/05/12 10:01:10;;;;;;;4.13;1.10;;;30.70;35.40;;;;;;5068968;28;20448;-61
2022/05/12 10:09:22;;;;;;;3.95;1.00;;;29.20;38.20;;;;;;5065867;28;20123;-62
2022/05/12 10:12:17;;;;;;;1.92;0.75;;;30.90;35.30;;;;;;5066210;28;20115;-61
2022/05/12 10:14:57;;;;;;;1.70;0.95;;;31.20;32.30;;;;;;5072328;28;20028;-61
2022/05/12 10:17:39;;;;;;;3.55;0.95;;;31.30;31.00;;;;;;5068712;28;20013;-61
2022/05/12 10:20:18;;;;;;;2.05;0.80;;;32.20;28.60;;;;;;5070079;28;20145;-61
2022/05/12 10:22:59;;;;;;;3.15;0.90;;;31.60;29.70;;;;;;5071585;28;20028;-62
2022/05/12 10:25:47;;;;;;;2.58;0.80;;;32.70;29.60;;;;;;5048981;28;20148;-60
2022/05/12 10:28:25;;;;;;;2.22;0.90;;;33.40;26.70;;;;;;5049658;28;20052;-62
2022/05/12 10:31:16;;;;;;;1.65;0.75;;;28.70;28.30;;;;;;5065542;28;20024;-60
2022/05/12 10:33:48;;;;;;;2.63;0.80;;;26.40;35.60;;;;;;5028388;28;20090;-62
2022/05/12 10:36:28;;;;;;;2.47;0.93;;;27.80;40.30;;;;;;5063243;28;20032;-61
2022/05/12 10:39:09;;;;;;;2.10;1.63;;;31.00;31.90;;;;;;5070322;28;20037;-59
2022/05/12 10:41:41;;;;;;;2.08;0.60;;;33.90;26.80;;;;;;5072145;28;20055;-59
2022/05/12 10:44:21;;;;;;;2.80;0.90;;;33.70;25.80;;;;;;5071944;28;20466;-60
2022/05/12 10:46:53;;;;;;;2.45;0.90;;;34.10;23.50;;;;;;5070111;28;20040;-60
2022/05/12 10:49:27;;;;;;;3.08;0.70;;;34.30;25.50;;;;;;5068748;28;20067;-60
2022/05/12 10:52:31;;;;;;;1.95;0.80;;;35.90;22.20;;;;;;5070198;28;20386;-60
2022/05/12 10:55:18;;;;;;;4.10;1.25;;;34.90;22.40;;;;;;5065460;28;20040;-61
2022/05/12 10:58:05;;;;;;;3.95;0.85;;;34.60;22.60;;;;;;5071609;28;20021;-60
2022/05/12 11:00:48;;;;;;;1.50;0.95;;;34.30;22.20;;;;;;5071461;28;20028;-59
2022/05/12 11:03:20;;;;;;;3.55;0.80;;;32.50;24.30;;;;;;5071142;28;20021;-64
2022/05/12 11:05:51;;;;;;;2.13;0.65;;;32.60;24.40;;;;;;5068470;28;20041;-63
2022/05/12 11:08:18;;;;;;;;;;;31.60;23.60;;;;;;5068061;28;20024;-59
2022/05/12 11:10:48;;;;;;;1.77;0.50;;;34.20;23.10;;;;;;5069847;28;19908;-60
2022/05/12 11:13:32;;;;;;;;;;;33.70;23.20;;;;;;5070631;28;20024;-61
2022/05/12 11:16:03;;;;;;;3.00;0.90;;;35.20;21.60;;;;;;5067978;28;19908;-60
2022/05/12 11:18:36;;;;;;;3.75;0.80;;;33.50;20.70;;;;;;5069505;28;20704;-59
2022/05/12 11:21:11;;;;;;;3.47;0.73;;;34.00;21.40;;;;;;5071396;28;20035;-58
2022/05/12 11:24:11;;;;;;;2.92;0.50;;;35.50;20.60;;;;;;5065900;28;20028;-61
2022/05/12 11:27:00;;;;;;;4.53;0.95;;;36.80;19.60;;;;;;5067125;28;20086;-60
2022/05/12 11:29:44;;;;;;;3.03;0.98;;;35.40;18.30;;;;;;5059770;28;20041;-61
2022/05/12 11:32:09;;;;;;;2.42;0.50;;;35.00;21.10;;;;;;5067254;28;20485;-62
2022/05/12 11:34:37;;;;;;;5.28;0.70;;;34.80;16.40;;;;;;5067681;28;20077;-61
2022/05/12 11:37:28;;;;;;;1.67;0.80;;;33.30;18.70;;;;;;5070028;28;20067;-62
2022/05/12 11:40:00;;;;;;;1.92;0.50;;;30.50;20.30;;;;;;5067490;28;20025;-62
2022/05/12 11:45:48;;;;;;;3.67;1.02;;;33.30;20.90;;;;;;5070448;28;20043;-63
2022/05/12 11:48:46;;;;;;;1.00;0.82;;;33.60;20.10;;;;;;5070608;28;20580;-60
2022/05/12 11:52:04;;;;;;;2.10;0.50;;;34.30;19.90;;;;;;5045162;28;20121;-60
2022/05/12 11:54:59;;;;;;;2.38;0.60;;;33.10;17.90;;;;;;5018064;28;20044;-60
2022/05/12 11:57:43;;;;;;;2.28;0.60;;;32.10;20.30;;;;;;5063887;28;20017;-61
2022/05/12 12:00:49;;;;;;;3.33;0.68;;;32.30;19.70;;;;;;5067284;28;20024;-61
2022/05/12 12:03:15;;;;;;;2.90;0.60;;;32.70;19.60;;;;;;5066761;28;20028;-61
2022/05/12 12:05:41;;;;;;;2.85;0.82;;;32.70;19.60;;;;;;5067112;28;20055;-61
2022/05/12 12:08:09;;;;;;;2.30;0.65;;;33.90;18.70;;;;;;5067184;28;20112;-61
2022/05/12 12:10:41;;;;;;;3.75;1.25;;;32.50;19.20;;;;;;5066866;28;20021;-61
2022/05/12 12:13:16;;;;;;;1.52;0.45;;;31.10;20.80;;;;;;5067018;28;20020;-61
2022/05/12 12:16:13;;;;;;;3.42;0.82;;;31.20;21.30;;;;;;5067296;28;20025;-61
2022/05/12 12:18:39;;;;;;;1.13;0.65;;;32.20;21.60;;;;;;5066963;28;20052;-61
2022/05/12 12:21:36;;;;;;;1.90;0.40;;;31.90;19.50;;;;;;5067327;28;20460;-61
2022/05/12 12:24:22;;;;;;;2.92;0.60;;;33.80;20.20;;;;;;5066960;28;20037;-62
2022/05/12 12:26:58;;;;;;;3.35;0.60;;;32.90;18.50;;;;;;5066331;28;20063;-61
2022/05/12 12:29:45;;;;;;;1.77;0.47;;;32.40;19.60;;;;;;5066518;28;20378;-61
2022/05/12 12:32:31;;;;;;;1.65;0.55;;;34.00;20.60;;;;;;5066733;28;20028;-61
2022/05/12 12:35:17;;;;;;;2.50;0.82;;;31.80;17.80;;;;;;5066776;28;20043;-62
2022/05/12 12:37:47;;;;;;;1.48;0.40;;;31.00;19.40;;;;;;5066079;28;20131;-61
2022/05/12 12:40:45;;;;;;;1.00;0.50;;;31.40;21.00;;;;;;5066756;28;20386;-61
2022/05/12 12:43:20;;;;;;;1.00;0.60;;;32.70;19.00;;;;;;5023675;28;20268;-61
2022/05/12 12:45:52;;;;;;;2.65;0.40;;;31.20;18.90;;;;;;5046587;28;20449;-61
2022/05/12 12:48:30;;;;;;;3.55;0.93;;;32.00;20.50;;;;;;5046414;28;20400;-62
2022/05/12 12:50:55;;;;;;;1.67;0.45;;;31.50;18.90;;;;;;5046669;28;20394;-61
2022/05/12 12:56:30;;;;;;;2.38;0.50;;;30.90;19.70;;;;;;5046550;28;20025;-61
2022/05/12 12:56:32;;;;;;;2.88;0.50;;;30.60;19.30;;;;;;5045567;28;20382;-63
2022/05/12 12:58:58;;;;;;;1.48;0.55;;;29.10;19.90;;;;;;5046599;28;20504;-61
2022/05/12 13:01:33;;;;;;;2.70;1.25;;;27.80;21.60;;;;;;5046617;28;20025;-61
2022/05/12 13:03:59;;;;;;;2.58;0.70;;;27.50;22.00;;;;;;5046455;28;20021;-61
2022/05/12 13:06:36;;;;;;;1.98;0.73;;;29.00;21.80;;;;;;5046362;28;20037;-61
2022/05/12 13:09:09;;;;;;;4.25;0.93;;;28.00;21.60;;;;;;5045997;28;20858;-60
2022/05/12 13:11:38;;;;;;;3.85;0.40;;;28.80;23.10;;;;;;5055228;28;20159;-60
2022/05/12 13:14:06;;;;;;;0.95;0.47;;;29.40;21.00;;;;;;5066332;28;20031;-61
2022/05/12 13:16:36;;;;;;;2.20;0.47;;;29.60;20.40;;;;;;5066307;28;20016;-61
2022/05/12 13:19:01;;;;;;;;;;;28.50;21.30;;;;;;5048747;28;20032;-61
2022/05/12 13:21:36;;;;;;;2.33;0.60;;;27.00;23.60;;;;;;5066528;28;19908;-61
2022/05/12 13:24:39;;;;;;;3.13;0.88;;;27.20;24.00;;;;;;5065946;28;20070;-60
2022/05/12 13:27:07;;;;;;;1.17;0.52;;;28.00;24.30;;;;;;4992132;28;20134;-60
2022/05/12 13:29:37;;;;;;;2.30;0.60;;;28.70;22.60;;;;;;5048301;28;20028;-60
2022/05/12 13:32:23;;;;;;;;;;;29.30;23.00;;;;;;5059795;28;20036;-60